Rio Hacha, Riohacha Almirante Padilla Airport (SKRH)

NameRiohacha Almirante Padilla Airport
CityRio Hacha
CountryColombia
ICAOSKRH
IATARCH
Altitude13 m
CoordinatesGoogle Map
Live Air TrafficLiveATC.net
METARSKRH 251700Z 09010KT 9999 FEW020 35/20 A2986
2020-04-25 17:00:00 Wind: East (90°) 5.14 m/s - Visibility: > 10000 m - Temperature: 35 °C - Dew point: 20 °C - Humidity: 41.3% - Pressure: 1011.18 hPa

Sorry, no flights used the airport in this database.